メインページ
METAR-TAF:

METAR-TAF

空港 :

ニューデリー, インド

インディラ・ガンディー国際空港

緯度: 28-34N, 経度: 077-07E, 海抜: 220m

現時点の気象観測

当レポートは17分前の12:00(UTC)に作成
の風 8kt
気温 29°C
湿度 43%
気圧 1011 hPa
視程: 3200m
高度4000ftの雲は散在している
高度10000ftの雲は散在している
煙霧

METAR: VIDP 241200Z 09008KT 3200 HZ SCT040 SCT100 29/15 Q1011 BECMG 3000 HZ

時間: 17:47 (12:17 UTC)

予報

当レポートは1時間17分前の11:00(UTC)に作成
予報は24日の 12時(UTC)から 25日の 18時(UTC)まで有効
東/南東の風 5kt
視程: 3500m
高度4000ftの雲はほとんどない
高度10000ftの雲は散在している
煙霧
24日の 14時(UTC)から 24日の 19時(UTC)まで一時的に
西/北西の風 10kt、最大20ktの突風を伴う
視程: 1500m
高度3500ftの雲は散在している
高度4000ftの雲はほとんどない, 積乱雲.
高度9000ftの千切れ雲あり
激しい雷雨, 小雨
24日の 22時(UTC)から 24日の 24時(UTC)まで徐々に
北東の風 4kt
視程: 1800m
25日の 05時(UTC)から 25日の 07時(UTC)まで徐々に
東/南東の風 6kt
視程: 3500m
高度4000ftの雲は散在している
高度10000ftの千切れ雲あり
煙霧

TAF: VIDP 241100Z 2412/2518 11005KT 3500 HZ FEW040 SCT100 TEMPO 2414/2419 30010G20KT 1500 -TSRA SCT035 FEW040CB BKN090 BECMG 2422/2424 05004KT 1800 FU BECMG 2505/2507 11006KT 3500 HZ SCT040 BKN100

4,000以上の空港の気象観測と天気予報(METAR報とTAF報)

利用可能な観測所は地図上に黄色い丸と赤い丸で示す。

丸の上にカーソルを重ねると観測所名を参照できる。

次にクリックすると気象観測と天気予報を参照できる。

マップの切り替え:黒色「×」印の緑ボタンをクリックして拡大、「-」印の緑ボタンをクリックして縮小、緑色の三角印をクリックして隣りの地図に切り替え


METAR-TAF: